Aviation Digital Data Service (ADDS)

Output produced by METARs form (2159 UTC 21 August 2014)
found at http://www.aviationweather.gov/adds/metars/
 
KALB 212040Z 2121/2218 16012KT P6SM SCT025 BKN040 OVC100 
     TEMPO 2121/2123 3SM -TSRA BR BKN015CB OVC035 
     FM212300 15005KT 5SM -SHRA BKN015 OVC030 
     FM220600 VRB03KT 4SM BR VCSH SCT008 OVC012 
     FM221200 VRB03KT P6SM VCSH SCT008 OVC015